createdAt,value
2023-10-28T00:00:59.569Z,9.64
2023-10-28T00:03:27.284Z,9.65
2023-10-28T00:05:54.624Z,9.78
2023-10-28T00:08:21.492Z,9.73
2023-10-28T00:10:49.654Z,9.60
2023-10-28T00:13:17.319Z,9.73
2023-10-28T00:15:44.350Z,9.71
2023-10-28T00:18:11.375Z,9.67
2023-10-28T00:20:38.750Z,9.73
2023-10-28T00:23:06.281Z,9.82
2023-10-28T00:25:33.290Z,9.75
2023-10-28T00:28:01.399Z,9.71
2023-10-28T00:30:28.736Z,9.64
2023-10-28T00:33:00.558Z,9.53
2023-10-28T00:35:29.746Z,9.47
2023-10-28T00:37:57.580Z,9.61
2023-10-28T00:40:32.840Z,9.53
2023-10-28T00:43:00.624Z,9.76
2023-10-28T00:45:31.050Z,9.69
2023-10-28T00:47:59.231Z,9.82
2023-10-28T00:50:26.892Z,9.67
2023-10-28T00:52:55.939Z,9.69
2023-10-28T00:55:24.573Z,9.94
2023-10-28T00:57:53.154Z,9.77
2023-10-28T01:00:22.405Z,9.93
2023-10-28T01:02:50.430Z,9.75
2023-10-28T01:05:18.255Z,9.53
2023-10-28T01:07:49.523Z,9.48
2023-10-28T01:10:31.368Z,9.62
2023-10-28T01:13:00.069Z,9.78
2023-10-28T01:15:27.750Z,10.06
2023-10-28T01:17:55.002Z,9.85
2023-10-28T01:20:23.541Z,10.00
2023-10-28T01:22:50.693Z,10.00
2023-10-28T01:25:17.641Z,10.06
2023-10-28T01:27:46.268Z,9.94
2023-10-28T01:30:17.845Z,10.22
2023-10-28T01:32:46.705Z,10.14
2023-10-28T01:35:15.092Z,10.33
2023-10-28T01:37:44.016Z,9.98
2023-10-28T01:40:15.679Z,10.01
2023-10-28T01:42:45.852Z,9.96
2023-10-28T01:45:14.435Z,10.23
2023-10-28T01:47:43.106Z,10.16
2023-10-28T01:50:15.589Z,10.43
2023-10-28T01:52:44.534Z,10.77
2023-10-28T01:55:13.401Z,10.61
2023-10-28T01:57:41.179Z,10.34
2023-10-28T02:00:14.006Z,10.28
2023-10-28T02:02:43.143Z,10.04
2023-10-28T02:05:10.623Z,9.98
2023-10-28T02:07:38.983Z,10.10
2023-10-28T02:10:06.895Z,10.18
2023-10-28T02:12:35.876Z,10.17
2023-10-28T02:15:08.587Z,10.22
2023-10-28T02:17:37.087Z,10.16
2023-10-28T02:20:05.622Z,10.18
2023-10-28T02:22:33.040Z,10.26
2023-10-28T02:25:00.657Z,10.27
2023-10-28T02:27:28.119Z,10.27
2023-10-28T02:29:55.102Z,10.24
2023-10-28T02:32:22.095Z,10.24
2023-10-28T02:34:49.096Z,10.18
2023-10-28T02:37:16.067Z,10.21
2023-10-28T02:39:43.406Z,10.22
2023-10-28T02:42:10.328Z,10.22
2023-10-28T02:44:38.108Z,10.22
2023-10-28T02:47:05.405Z,10.24
2023-10-28T02:49:32.324Z,10.16
2023-10-28T02:51:59.360Z,10.11
2023-10-28T02:54:26.226Z,10.08
2023-10-28T02:56:53.153Z,10.10
2023-10-28T02:59:21.334Z,10.10
2023-10-28T03:01:48.257Z,10.04
2023-10-28T03:04:15.231Z,10.02
2023-10-28T03:06:42.133Z,10.05
2023-10-28T03:09:09.032Z,9.98
2023-10-28T03:11:35.920Z,9.94
2023-10-28T03:14:02.852Z,9.92
2023-10-28T03:16:29.791Z,9.90
2023-10-28T03:18:57.445Z,9.91
2023-10-28T03:21:25.358Z,9.93
2023-10-28T03:23:52.391Z,9.94
2023-10-28T03:26:19.277Z,9.95
2023-10-28T03:28:46.148Z,10.17
2023-10-28T03:31:14.457Z,9.97
2023-10-28T03:33:42.341Z,9.95
2023-10-28T03:36:12.880Z,9.97
2023-10-28T03:38:40.372Z,9.91
2023-10-28T03:41:12.522Z,9.91
2023-10-28T03:43:40.386Z,9.88
2023-10-28T03:46:07.447Z,9.89
2023-10-28T03:48:35.422Z,9.88
2023-10-28T03:51:07.212Z,9.80
2023-10-28T03:53:34.567Z,9.80
2023-10-28T03:56:01.642Z,9.73
2023-10-28T03:58:28.598Z,9.74
2023-10-28T04:00:55.930Z,9.70
2023-10-28T04:03:24.931Z,9.68
2023-10-28T04:05:54.789Z,9.78
2023-10-28T04:08:21.953Z,9.68
2023-10-28T04:10:49.008Z,9.61
2023-10-28T04:13:16.048Z,9.60
2023-10-28T04:15:43.174Z,9.59
2023-10-28T04:18:10.130Z,9.73
2023-10-28T04:20:39.041Z,9.73
2023-10-28T04:23:07.547Z,10.00
2023-10-28T04:25:35.096Z,10.03
2023-10-28T04:28:02.023Z,10.15
2023-10-28T04:30:28.964Z,9.88
2023-10-28T04:32:56.068Z,10.07
2023-10-28T04:35:28.240Z,9.92
2023-10-28T04:37:57.532Z,9.90
2023-10-28T04:40:26.395Z,10.05
2023-10-28T04:42:54.220Z,9.83
2023-10-28T04:45:23.190Z,9.83
2023-10-28T04:47:52.177Z,10.26
2023-10-28T04:50:19.797Z,10.11
2023-10-28T04:52:46.821Z,10.07
2023-10-28T04:55:14.534Z,9.82
2023-10-28T04:57:41.834Z,9.78
2023-10-28T05:00:10.632Z,9.91
2023-10-28T05:02:37.697Z,9.90
2023-10-28T05:05:05.135Z,9.99
2023-10-28T05:07:32.328Z,9.90
2023-10-28T05:09:59.860Z,9.88
2023-10-28T05:12:27.153Z,9.84
2023-10-28T05:14:54.239Z,9.82
2023-10-28T05:17:21.245Z,9.93
2023-10-28T05:19:48.347Z,9.99
2023-10-28T05:22:18.474Z,9.97
2023-10-28T05:24:45.999Z,9.96
2023-10-28T05:27:12.932Z,9.87
2023-10-28T05:29:39.801Z,9.85
2023-10-28T05:32:07.014Z,9.82
2023-10-28T05:34:34.716Z,9.83
2023-10-28T05:37:01.673Z,9.81
2023-10-28T05:39:28.709Z,9.86
2023-10-28T05:41:55.691Z,9.80
2023-10-28T05:44:22.627Z,9.80
2023-10-28T05:46:49.616Z,9.88
2023-10-28T05:49:16.556Z,9.99
2023-10-28T05:51:44.630Z,10.00
2023-10-28T05:54:12.918Z,9.92
2023-10-28T05:56:39.992Z,9.77
2023-10-28T05:59:06.947Z,9.92
2023-10-28T06:01:33.941Z,10.08
2023-10-28T06:04:00.932Z,9.98
2023-10-28T06:06:29.050Z,9.92
2023-10-28T06:08:56.261Z,9.94
2023-10-28T06:11:23.138Z,10.15
2023-10-28T06:13:50.733Z,10.27
2023-10-28T06:16:20.330Z,10.27
2023-10-28T06:18:48.270Z,10.57
2023-10-28T06:21:18.352Z,10.51
2023-10-28T06:23:45.203Z,10.22
2023-10-28T06:26:12.137Z,10.18
2023-10-28T06:28:39.048Z,10.17
2023-10-28T06:31:06.015Z,10.32
2023-10-28T06:33:33.901Z,10.25
2023-10-28T06:36:00.864Z,10.53
2023-10-28T06:38:29.501Z,10.75
2023-10-28T06:40:56.615Z,10.76
2023-10-28T06:43:24.437Z,10.83
2023-10-28T06:45:51.909Z,10.95
2023-10-28T06:48:18.809Z,10.94
2023-10-28T06:50:46.454Z,10.92
2023-10-28T06:53:13.378Z,11.04
2023-10-28T06:55:40.324Z,11.30
2023-10-28T06:58:07.222Z,11.00
2023-10-28T07:00:34.104Z,11.07
2023-10-28T07:03:01.091Z,11.06
2023-10-28T07:05:28.057Z,10.90
2023-10-28T07:07:55.996Z,10.85
2023-10-28T07:10:23.656Z,10.93
2023-10-28T07:12:51.298Z,10.96
2023-10-28T07:15:19.361Z,10.48
2023-10-28T07:17:46.569Z,10.32
2023-10-28T07:20:14.189Z,10.50
2023-10-28T07:22:42.837Z,10.74
2023-10-28T07:25:11.340Z,10.35
2023-10-28T07:27:39.157Z,10.72
2023-10-28T07:30:07.205Z,11.01
2023-10-28T07:32:34.260Z,10.98
2023-10-28T07:35:01.233Z,10.89
2023-10-28T07:37:28.198Z,10.64
2023-10-28T07:39:55.103Z,10.49
2023-10-28T07:42:23.840Z,10.55
2023-10-28T07:44:52.603Z,10.81
2023-10-28T07:47:19.680Z,10.93
2023-10-28T07:49:47.080Z,11.02
2023-10-28T07:52:14.725Z,11.08
2023-10-28T07:54:41.685Z,10.92
2023-10-28T07:57:09.404Z,11.02
2023-10-28T07:59:37.298Z,11.24
2023-10-28T08:02:04.369Z,11.28
2023-10-28T08:04:31.277Z,11.33
2023-10-28T08:06:58.245Z,11.36
2023-10-28T08:09:25.085Z,11.39
2023-10-28T08:11:52.069Z,11.36
2023-10-28T08:14:19.172Z,11.84
2023-10-28T08:16:46.577Z,11.48
2023-10-28T08:19:13.981Z,11.67
2023-10-28T08:21:42.046Z,11.58
2023-10-28T08:24:13.384Z,11.36
2023-10-28T08:26:41.449Z,11.41
2023-10-28T08:29:08.625Z,11.67
2023-10-28T08:31:35.557Z,11.60
2023-10-28T08:34:05.142Z,11.71
2023-10-28T08:36:35.491Z,11.50
2023-10-28T08:39:02.864Z,11.48
2023-10-28T08:41:30.805Z,11.52
2023-10-28T08:44:01.550Z,11.61
2023-10-28T08:46:30.116Z,11.89
2023-10-28T08:49:00.511Z,11.48
2023-10-28T08:51:28.334Z,11.55
2023-10-28T08:54:00.678Z,11.69
2023-10-28T08:56:30.171Z,11.57
2023-10-28T08:58:57.227Z,11.58
2023-10-28T09:01:26.173Z,11.49
2023-10-28T09:04:01.642Z,11.72
2023-10-28T09:06:29.790Z,11.65
2023-10-28T09:08:56.964Z,11.73
2023-10-28T09:11:24.482Z,11.58
2023-10-28T09:13:51.421Z,11.58
2023-10-28T09:16:18.792Z,11.74
2023-10-28T09:18:46.596Z,11.68
2023-10-28T09:21:13.936Z,11.66
2023-10-28T09:23:44.719Z,11.66
2023-10-28T09:26:11.685Z,11.61
2023-10-28T09:28:45.793Z,11.63
2023-10-28T09:31:13.449Z,11.75
2023-10-28T09:33:41.865Z,11.67
2023-10-28T09:36:09.934Z,11.68
2023-10-28T09:38:39.051Z,11.76
2023-10-28T09:41:08.876Z,11.92
2023-10-28T09:43:39.198Z,11.68
2023-10-28T09:46:08.092Z,11.61
2023-10-28T09:48:40.403Z,11.59
2023-10-28T09:51:08.254Z,11.64
2023-10-28T09:53:39.261Z,11.71
2023-10-28T09:56:08.128Z,11.73
2023-10-28T09:58:43.544Z,11.89
2023-10-28T10:01:26.338Z,11.88
2023-10-28T10:04:08.305Z,11.98
2023-10-28T10:06:39.504Z,11.98
2023-10-28T10:09:13.716Z,12.13
2023-10-28T10:11:44.299Z,12.06
2023-10-28T10:14:14.144Z,12.18
2023-10-28T10:16:48.356Z,12.17
2023-10-28T10:19:27.682Z,12.29
2023-10-28T10:21:54.645Z,12.22
2023-10-28T10:24:22.038Z,12.35
2023-10-28T10:27:00.731Z,12.58
2023-10-28T10:29:30.576Z,12.83
2023-10-28T10:31:58.179Z,12.75
2023-10-28T10:34:45.093Z,12.55
2023-10-28T10:37:26.310Z,12.66
2023-10-28T10:39:55.502Z,12.44
2023-10-28T10:42:26.845Z,12.39
2023-10-28T10:44:54.509Z,12.41
2023-10-28T10:47:23.415Z,12.29
2023-10-28T10:49:51.311Z,12.37
2023-10-28T10:52:20.544Z,12.28
2023-10-28T10:54:47.593Z,12.46
2023-10-28T10:57:14.561Z,12.51
2023-10-28T10:59:41.895Z,12.56
2023-10-28T11:02:12.581Z,12.52
2023-10-28T11:04:40.848Z,12.66
2023-10-28T11:07:08.821Z,12.59
2023-10-28T11:09:36.736Z,12.58
2023-10-28T11:12:04.430Z,12.69
2023-10-28T11:14:31.526Z,12.80
2023-10-28T11:16:58.761Z,12.72
2023-10-28T11:19:25.812Z,12.88
2023-10-28T11:21:55.471Z,12.90
2023-10-28T11:24:24.196Z,13.06
2023-10-28T11:26:51.124Z,13.21
2023-10-28T11:29:18.541Z,13.39
2023-10-28T11:31:46.996Z,13.26
2023-10-28T11:34:15.580Z,13.18
2023-10-28T11:37:12.660Z,13.56
2023-10-28T11:39:49.136Z,13.62
2023-10-28T11:42:19.841Z,13.73
2023-10-28T11:44:52.272Z,13.71
2023-10-28T11:47:21.313Z,13.52
2023-10-28T11:49:48.489Z,13.32
2023-10-28T11:52:15.614Z,13.36
2023-10-28T11:54:42.682Z,13.47
2023-10-28T11:57:09.881Z,13.54
2023-10-28T11:59:37.166Z,13.46
2023-10-28T12:02:05.046Z,13.74
2023-10-28T12:04:31.935Z,13.34
2023-10-28T12:06:59.334Z,13.38
2023-10-28T12:09:26.454Z,13.45
2023-10-28T12:11:53.848Z,13.49
2023-10-28T12:14:20.905Z,13.45
2023-10-28T12:16:48.643Z,13.57
2023-10-28T12:19:15.514Z,13.61
2023-10-28T12:21:43.341Z,13.76
2023-10-28T12:24:10.441Z,13.91
2023-10-28T12:26:38.455Z,13.87
2023-10-28T12:29:05.808Z,13.86
2023-10-28T12:31:33.582Z,14.86
2023-10-28T12:34:03.156Z,14.78
2023-10-28T12:36:30.762Z,14.29
2023-10-28T12:38:57.609Z,14.47
2023-10-28T12:41:24.509Z,14.22
2023-10-28T12:43:51.489Z,14.15
2023-10-28T12:46:18.856Z,14.39
2023-10-28T12:48:46.112Z,15.03
2023-10-28T12:51:13.830Z,16.97
2023-10-28T12:53:41.738Z,15.17
2023-10-28T12:56:10.505Z,15.80
2023-10-28T12:58:37.790Z,15.00
2023-10-28T13:01:05.021Z,14.20
2023-10-28T13:03:32.099Z,13.99
2023-10-28T13:05:59.336Z,13.90
2023-10-28T13:08:29.217Z,13.89
2023-10-28T13:10:57.402Z,13.99
2023-10-28T13:13:24.272Z,13.88
2023-10-28T13:15:51.163Z,13.98
2023-10-28T13:18:18.046Z,13.99
2023-10-28T13:20:45.104Z,14.02
2023-10-28T13:23:13.628Z,13.96
2023-10-28T13:25:41.334Z,14.11
2023-10-28T13:28:11.231Z,14.27
2023-10-28T13:30:39.526Z,14.72
2023-10-28T13:33:06.672Z,15.26
2023-10-28T13:35:34.436Z,14.63
2023-10-28T13:38:01.522Z,15.12
2023-10-28T13:40:28.606Z,15.20
2023-10-28T13:42:55.670Z,14.61
2023-10-28T13:45:22.585Z,14.63
2023-10-28T13:47:51.781Z,14.70
2023-10-28T13:50:19.857Z,14.55
2023-10-28T13:52:48.466Z,14.33
2023-10-28T13:55:15.458Z,14.08
2023-10-28T13:57:42.462Z,13.99
2023-10-28T14:00:14.753Z,14.09
2023-10-28T14:02:42.868Z,14.15
2023-10-28T14:05:10.181Z,14.23
2023-10-28T14:07:38.542Z,14.28
2023-10-28T14:10:08.319Z,13.98
2023-10-28T14:12:35.704Z,14.08
2023-10-28T14:15:02.650Z,14.08
2023-10-28T14:17:29.613Z,13.77
2023-10-28T14:19:58.092Z,13.67
2023-10-28T14:22:25.007Z,13.48
2023-10-28T14:24:51.901Z,13.34
2023-10-28T14:27:18.983Z,13.15
2023-10-28T14:29:46.085Z,13.06
2023-10-28T14:32:17.772Z,13.01
2023-10-28T14:34:44.850Z,12.94
2023-10-28T14:37:12.077Z,12.83
2023-10-28T14:39:39.192Z,12.78
2023-10-28T14:42:06.739Z,12.73
2023-10-28T14:44:33.837Z,12.65
2023-10-28T14:47:01.636Z,12.45
2023-10-28T14:49:29.649Z,12.56
2023-10-28T14:51:56.579Z,12.63
2023-10-28T14:54:23.456Z,12.62
2023-10-28T14:56:50.379Z,12.63
2023-10-28T14:59:17.598Z,12.55
2023-10-28T15:01:44.691Z,12.55
2023-10-28T15:04:11.733Z,12.36
2023-10-28T15:06:38.891Z,12.28
2023-10-28T15:09:06.090Z,12.27
2023-10-28T15:11:36.666Z,12.28
2023-10-28T15:14:06.742Z,12.33
2023-10-28T15:16:34.205Z,12.44
2023-10-28T15:19:01.814Z,12.61
2023-10-28T15:21:28.919Z,12.76
2023-10-28T15:23:58.002Z,12.94
2023-10-28T15:26:25.979Z,12.72
2023-10-28T15:28:53.432Z,12.94
2023-10-28T15:31:20.315Z,12.98
2023-10-28T15:33:47.383Z,12.93
2023-10-28T15:36:17.715Z,13.39
2023-10-28T15:38:44.784Z,13.22
2023-10-28T15:41:11.992Z,12.95
2023-10-28T15:43:39.933Z,12.84
2023-10-28T15:46:14.175Z,13.18
2023-10-28T15:48:43.834Z,12.83
2023-10-28T15:51:13.210Z,12.67
2023-10-28T15:53:41.422Z,12.63
2023-10-28T15:56:12.122Z,12.93
2023-10-28T15:58:42.050Z,12.56
2023-10-28T16:01:09.597Z,12.55
2023-10-28T16:03:38.006Z,12.40
2023-10-28T16:06:14.696Z,12.34
2023-10-28T16:08:44.396Z,12.31
2023-10-28T16:11:14.488Z,12.21
2023-10-28T16:13:44.835Z,12.18
2023-10-28T16:16:13.458Z,12.18
2023-10-28T16:18:41.373Z,12.05
2023-10-28T16:21:09.976Z,12.06
2023-10-28T16:23:40.877Z,12.04
2023-10-28T16:26:08.051Z,12.04
2023-10-28T16:28:35.014Z,12.13
2023-10-28T16:31:08.105Z,12.02
2023-10-28T16:33:37.206Z,11.85
2023-10-28T16:36:04.924Z,11.82
2023-10-28T16:38:31.908Z,11.86
2023-10-28T16:40:59.823Z,11.90
2023-10-28T16:43:27.414Z,11.78
2023-10-28T16:46:02.749Z,11.65
2023-10-28T16:48:30.494Z,11.63
2023-10-28T16:51:00.182Z,11.66
2023-10-28T16:53:27.708Z,11.46
2023-10-28T16:56:07.781Z,11.69
2023-10-28T16:58:36.415Z,11.42
2023-10-28T17:01:06.407Z,11.44
2023-10-28T17:03:36.213Z,11.25
2023-10-28T17:06:06.784Z,11.19
2023-10-28T17:08:34.430Z,11.29
2023-10-28T17:11:03.879Z,11.23
2023-10-28T17:13:31.181Z,11.43
2023-10-28T17:16:01.309Z,11.22
2023-10-28T17:18:28.492Z,10.95
2023-10-28T17:20:56.625Z,11.07
2023-10-28T17:23:23.691Z,10.91
2023-10-28T17:25:50.562Z,11.08
2023-10-28T17:28:17.419Z,11.09
2023-10-28T17:30:44.717Z,10.84
2023-10-28T17:33:12.988Z,11.05
2023-10-28T17:35:44.032Z,10.90
2023-10-28T17:38:12.030Z,11.03
2023-10-28T17:40:39.698Z,11.07
2023-10-28T17:43:06.644Z,11.05
2023-10-28T17:45:33.586Z,11.03
2023-10-28T17:48:02.541Z,11.05
2023-10-28T17:50:29.548Z,11.12
2023-10-28T17:52:56.443Z,11.25
2023-10-28T17:55:23.275Z,11.25
2023-10-28T17:57:51.476Z,11.23
2023-10-28T18:00:21.184Z,11.18
2023-10-28T18:02:48.698Z,11.38
2023-10-28T18:05:15.805Z,11.53
2023-10-28T18:07:42.878Z,11.37
2023-10-28T18:10:10.344Z,11.49
2023-10-28T18:12:37.453Z,11.46
2023-10-28T18:15:04.626Z,11.43
2023-10-28T18:17:31.571Z,11.46
2023-10-28T18:19:58.677Z,11.57
2023-10-28T18:22:26.084Z,11.40
2023-10-28T18:24:53.446Z,11.40
2023-10-28T18:27:20.313Z,11.48
2023-10-28T18:29:47.518Z,11.75
2023-10-28T18:32:15.303Z,11.50
2023-10-28T18:34:43.025Z,11.42
2023-10-28T18:37:09.877Z,11.35
2023-10-28T18:39:37.487Z,11.53
2023-10-28T18:42:05.323Z,11.40
2023-10-28T18:44:33.194Z,11.47
2023-10-28T18:47:05.292Z,11.45
2023-10-28T18:49:32.759Z,11.61
2023-10-28T18:52:00.291Z,11.57
2023-10-28T18:54:28.255Z,11.65
2023-10-28T18:56:55.138Z,11.74
2023-10-28T18:59:22.354Z,11.84
2023-10-28T19:01:49.354Z,11.74
2023-10-28T19:04:16.368Z,11.81
2023-10-28T19:06:44.393Z,11.78
2023-10-28T19:09:12.228Z,11.84
2023-10-28T19:11:39.553Z,11.83
2023-10-28T19:14:06.489Z,11.83
2023-10-28T19:16:34.193Z,11.95
2023-10-28T19:19:01.121Z,12.00
2023-10-28T19:21:28.091Z,11.89
2023-10-28T19:23:55.477Z,11.81
2023-10-28T19:26:22.489Z,11.87
2023-10-28T19:28:49.729Z,11.83
2023-10-28T19:31:17.004Z,11.95
2023-10-28T19:33:43.908Z,11.99
2023-10-28T19:36:11.499Z,11.90
2023-10-28T19:38:39.467Z,12.03
2023-10-28T19:41:06.829Z,11.92
2023-10-28T19:43:36.368Z,11.99
2023-10-28T19:46:08.342Z,12.08
2023-10-28T19:48:37.283Z,12.05
2023-10-28T19:51:08.914Z,12.05
2023-10-28T19:53:37.502Z,11.98
2023-10-28T19:56:05.131Z,12.04
2023-10-28T19:58:33.007Z,12.18
2023-10-28T20:00:59.877Z,12.21
2023-10-28T20:03:27.098Z,12.06
2023-10-28T20:05:54.060Z,12.12
2023-10-28T20:08:21.075Z,12.24
2023-10-28T20:10:47.951Z,12.19
2023-10-28T20:13:15.212Z,12.14
2023-10-28T20:15:42.443Z,12.29
2023-10-28T20:18:10.726Z,12.34
2023-10-28T20:20:37.826Z,11.97
2023-10-28T20:23:05.928Z,11.93
2023-10-28T20:25:32.954Z,11.96
2023-10-28T20:27:59.865Z,12.00
2023-10-28T20:30:26.707Z,12.04
2023-10-28T20:32:53.744Z,11.83
2023-10-28T20:35:20.725Z,11.85
2023-10-28T20:37:47.663Z,11.79
2023-10-28T20:40:14.520Z,11.74
2023-10-28T20:42:41.628Z,11.83
2023-10-28T20:45:10.929Z,11.80
2023-10-28T20:47:40.537Z,11.75
2023-10-28T20:50:09.355Z,11.67
2023-10-28T20:52:36.440Z,11.75
2023-10-28T20:55:04.863Z,11.79
2023-10-28T20:57:31.701Z,11.58
2023-10-28T20:59:58.583Z,11.38
2023-10-28T21:02:25.470Z,11.41
2023-10-28T21:04:52.343Z,11.43
2023-10-28T21:07:21.295Z,11.47
2023-10-28T21:09:48.974Z,11.50
2023-10-28T21:12:15.842Z,11.62
2023-10-28T21:14:43.521Z,11.47
2023-10-28T21:17:10.803Z,11.33
2023-10-28T21:19:37.859Z,11.34
2023-10-28T21:22:04.790Z,11.40
2023-10-28T21:24:31.784Z,11.36
2023-10-28T21:26:58.625Z,11.46
2023-10-28T21:29:27.405Z,11.38
2023-10-28T21:31:54.838Z,11.24
2023-10-28T21:34:23.356Z,11.27
2023-10-28T21:36:50.215Z,11.55
2023-10-28T21:39:17.899Z,11.26
2023-10-28T21:41:44.959Z,11.51
2023-10-28T21:44:11.850Z,11.51
2023-10-28T21:46:38.924Z,11.52
2023-10-28T21:49:07.342Z,11.39
2023-10-28T21:51:34.262Z,11.31
2023-10-28T21:54:01.377Z,11.39
2023-10-28T21:56:28.348Z,11.43
2023-10-28T21:58:55.241Z,11.41
2023-10-28T22:01:24.063Z,11.51
2023-10-28T22:03:52.368Z,11.45
2023-10-28T22:06:19.400Z,11.40
2023-10-28T22:08:46.398Z,11.43
2023-10-28T22:11:13.341Z,11.38
2023-10-28T22:13:40.205Z,11.46
2023-10-28T22:16:07.562Z,11.36
2023-10-28T22:18:34.617Z,11.51
2023-10-28T22:21:01.630Z,11.31
2023-10-28T22:23:29.176Z,11.33
2023-10-28T22:25:56.099Z,11.43
2023-10-28T22:28:23.444Z,11.31
2023-10-28T22:30:50.345Z,11.42
2023-10-28T22:33:17.442Z,11.50
2023-10-28T22:35:47.013Z,11.54
2023-10-28T22:38:15.254Z,11.48
2023-10-28T22:40:43.518Z,11.50
2023-10-28T22:43:11.406Z,11.66
2023-10-28T22:45:38.427Z,11.66
2023-10-28T22:48:06.660Z,11.66
2023-10-28T22:50:33.867Z,11.62
2023-10-28T22:53:00.841Z,11.71
2023-10-28T22:55:27.694Z,11.66
2023-10-28T22:57:54.711Z,11.81
2023-10-28T23:00:21.659Z,11.72
2023-10-28T23:02:48.619Z,11.77
2023-10-28T23:05:15.569Z,11.85
2023-10-28T23:07:42.776Z,11.80
2023-10-28T23:10:11.819Z,11.80
2023-10-28T23:12:39.050Z,11.84
2023-10-28T23:15:07.724Z,11.72
2023-10-28T23:17:34.986Z,11.81
2023-10-28T23:20:02.569Z,11.87
2023-10-28T23:22:29.443Z,11.90
2023-10-28T23:24:56.320Z,11.95
2023-10-28T23:27:24.041Z,11.88
2023-10-28T23:29:51.075Z,12.03
2023-10-28T23:32:19.823Z,11.94
2023-10-28T23:34:46.996Z,11.83
2023-10-28T23:37:14.128Z,11.89
2023-10-28T23:39:40.983Z,11.99
2023-10-28T23:42:08.129Z,11.96
2023-10-28T23:44:35.105Z,12.03
2023-10-28T23:47:01.998Z,12.07
2023-10-28T23:49:28.874Z,12.14
2023-10-28T23:51:55.864Z,12.17
2023-10-28T23:54:23.603Z,12.28
2023-10-28T23:56:50.564Z,12.35
2023-10-28T23:59:17.487Z,12.31
